Time;durP1;ratioP1;P1;durP2;ratioP2;P2;SDS_P1;SDS_P2;PMS_P1;PMS_P2;Temp;Humidity;BMP_temperature;BMP_pressure;BME280_temperature;BME280_humidity;BME280_pressure;Samples;Min_cycle;Max_cycle;Signal;HPM_P1;HPM_P2
2023/09/12 00:00:23;;;;;;;7.10;6.60;;;;;;;19.71;100.00;100675.31;6091440;23;20020;-74
2023/09/12 00:02:50;;;;;;;8.30;7.60;;;;;;;19.89;100.00;100700.25;6090204;23;20133;-73
2023/09/12 00:05:17;;;;;;;9.13;8.32;;;;;;;19.46;100.00;100637.56;6082210;23;20086;-74
2023/09/12 00:07:46;;;;;;;7.97;7.38;;;;;;;19.79;100.00;100710.06;6089170;23;20018;-74
2023/09/12 00:10:12;;;;;;;8.38;7.68;;;;;;;19.75;100.00;100714.00;6087163;23;20021;-76
2023/09/12 00:12:39;;;;;;;8.30;7.50;;;;;;;19.76;100.00;100721.00;6088149;23;20077;-75
2023/09/12 00:15:06;;;;;;;7.32;6.90;;;;;;;19.13;100.00;100604.22;6059501;23;20021;-75
2023/09/12 00:17:32;;;;;;;9.13;8.02;;;;;;;19.62;100.00;100692.91;6086821;23;20018;-74
2023/09/12 00:19:58;;;;;;;9.05;8.15;;;;;;;18.49;100.00;100509.75;6080699;23;20028;-75
2023/09/12 00:22:25;;;;;;;8.13;7.43;;;;;;;19.29;100.00;100639.09;6090489;23;20088;-76
2023/09/12 00:24:51;;;;;;;9.43;8.50;;;;;;;19.56;100.00;100676.66;6084181;23;20021;-75
2023/09/12 00:27:18;;;;;;;9.50;8.52;;;;;;;19.54;100.00;100660.81;6089494;23;20021;-74
2023/09/12 00:29:44;;;;;;;8.57;7.88;;;;;;;19.39;100.00;100652.44;6089697;23;20104;-75
2023/09/12 00:32:11;;;;;;;9.50;8.48;;;;;;;19.15;100.00;100626.22;6085188;23;20582;-75
2023/09/12 00:34:37;;;;;;;9.20;8.27;;;;;;;19.00;100.00;100585.00;6063856;23;20020;-76
2023/09/12 00:37:04;;;;;;;9.45;8.38;;;;;;;19.33;100.00;100648.50;6093781;23;20105;-75
2023/09/12 00:39:31;;;;;;;9.35;8.38;;;;;;;19.36;100.00;100657.19;6080709;23;20417;-75
2023/09/12 00:41:58;;;;;;;8.45;7.85;;;;;;;19.42;100.00;100672.59;6070074;23;20026;-74
2023/09/12 00:44:24;;;;;;;9.65;8.07;;;;;;;19.09;100.00;100632.91;6090396;23;20021;-74
2023/09/12 00:46:53;;;;;;;10.00;9.10;;;;;;;19.12;100.00;100640.63;6085798;23;20049;-74
2023/09/12 00:49:23;;;;;;;8.80;7.95;;;;;;;19.16;100.00;100650.97;6090006;23;20025;-74
2023/09/12 00:51:50;;;;;;;10.98;8.98;;;;;;;19.24;100.00;100673.25;6087103;23;20034;-76
2023/09/12 00:54:17;;;;;;;11.80;8.40;;;;;;;19.44;100.00;100705.22;6088060;23;20220;-74
2023/09/12 00:56:45;;;;;;;9.38;8.52;;;;;;;19.01;100.00;100639.91;6096753;23;20037;-74
2023/09/12 00:59:13;;;;;;;9.20;8.27;;;;;;;19.33;100.00;100695.56;6086189;23;22227;-76
2023/09/12 01:01:39;;;;;;;8.82;8.07;;;;;;;18.97;100.00;100625.19;6091011;23;20029;-75
2023/09/12 01:04:06;;;;;;;9.20;8.30;;;;;;;19.08;100.00;100651.66;6088200;23;20428;-75
2023/09/12 01:06:42;;;;;;;9.52;8.63;;;;;;;19.28;100.00;100687.13;6091094;23;20091;-75
2023/09/12 01:09:09;;;;;;;10.38;8.27;;;;;;;19.30;100.00;100690.50;6090028;23;20017;-74
2023/09/12 01:11:36;;;;;;;13.50;9.40;;;;;;;19.06;100.00;100665.13;6102211;23;20029;-76
2023/09/12 01:14:02;;;;;;;11.50;9.13;;;;;;;18.91;100.00;100661.16;6066207;23;20016;-75
2023/09/12 01:16:28;;;;;;;9.27;8.43;;;;;;;19.28;100.00;100711.06;6094028;23;20089;-77
2023/09/12 01:18:56;;;;;;;9.93;9.00;;;;;;;18.91;100.00;100677.09;6066389;23;20448;-76
2023/09/12 01:21:44;;;;;;;9.95;8.95;;;;;;;19.28;100.00;100751.00;6093614;23;20090;-76
2023/09/12 01:24:49;;;;;;;12.02;9.35;;;;;;;19.28;100.00;100770.47;6062488;23;20021;-75
2023/09/12 01:27:18;;;;;;;10.80;8.45;;;;;;;19.30;100.00;100772.97;6090166;23;20523;-76
2023/09/12 01:29:46;;;;;;;13.48;9.15;;;;;;;18.93;100.00;100712.38;6092447;23;20163;-76
2023/09/12 01:32:14;;;;;;;9.80;8.90;;;;;;;19.31;100.00;100774.69;6067228;23;20089;-74
2023/09/12 01:34:41;;;;;;;9.50;8.55;;;;;;;18.88;100.00;100707.47;6088894;23;20030;-77
2023/09/12 01:37:07;;;;;;;11.57;9.25;;;;;;;18.64;100.00;100656.38;6094876;23;20060;-74
2023/09/12 01:39:34;;;;;;;9.27;8.27;;;;;;;19.29;100.00;100763.34;6079750;23;20030;-75
2023/09/12 01:42:01;;;;;;;9.98;8.88;;;;;;;18.84;100.00;100683.91;6087024;23;20030;-75
2023/09/12 01:44:30;;;;;;;11.57;9.10;;;;;;;19.25;100.00;100748.63;6085412;23;20456;-76
2023/09/12 01:47:00;;;;;;;9.95;8.60;;;;;;;18.89;100.00;100695.00;6087626;23;20036;-75
2023/09/12 01:49:28;;;;;;;10.43;9.00;;;;;;;18.99;100.00;100724.31;6084292;23;20022;-75
2023/09/12 01:51:55;;;;;;;10.20;9.13;;;;;;;18.19;100.00;100593.81;6059700;23;20025;-74
2023/09/12 01:54:22;;;;;;;10.65;9.05;;;;;;;18.67;100.00;100667.59;6085160;23;20034;-74
2023/09/12 01:56:50;;;;;;;14.15;9.00;;;;;;;18.65;100.00;100679.34;6089802;23;20026;-75
2023/09/12 01:59:17;;;;;;;12.13;9.45;;;;;;;19.11;100.00;100744.50;6088353;23;20236;-73
2023/09/12 02:01:43;;;;;;;13.27;9.40;;;;;;;19.13;100.00;100750.53;6084169;23;20010;-74
2023/09/12 02:04:10;;;;;;;10.55;9.50;;;;;;;18.99;100.00;100733.13;6086524;23;20042;-74
2023/09/12 02:06:36;;;;;;;9.63;8.70;;;;;;;18.98;100.00;100735.91;6086147;23;20022;-73
2023/09/12 02:09:03;;;;;;;11.43;8.82;;;;;;;19.04;100.00;100753.97;6084226;23;20013;-74
2023/09/12 02:11:29;;;;;;;8.98;8.18;;;;;;;18.76;100.00;100718.28;6097528;23;20029;-73
2023/09/12 02:13:56;;;;;;;11.10;9.23;;;;;;;19.16;100.00;100782.16;6084021;23;20349;-74
2023/09/12 02:16:22;;;;;;;9.85;8.90;;;;;;;18.90;100.00;100750.72;6085108;23;20026;-75
2023/09/12 02:18:48;;;;;;;9.93;8.90;;;;;;;18.36;100.00;100681.84;6080713;23;20139;-75
2023/09/12 02:21:18;;;;;;;11.02;9.05;;;;;;;19.13;100.00;100785.94;6087312;23;20034;-75
2023/09/12 02:23:44;;;;;;;11.95;8.98;;;;;;;19.00;100.00;100774.69;6092257;23;20046;-76
2023/09/12 02:26:11;;;;;;;9.88;8.88;;;;;;;18.66;100.00;100720.88;6065054;23;20041;-75
2023/09/12 02:28:37;;;;;;;11.52;8.45;;;;;;;19.02;100.00;100779.88;6066487;23;20054;-75
2023/09/12 02:31:09;;;;;;;13.02;8.85;;;;;;;18.77;100.00;100747.41;6061776;23;20041;-76
2023/09/12 02:33:39;;;;;;;10.57;9.52;;;;;;;18.47;100.00;100729.59;6082547;23;20029;-75
2023/09/12 02:36:06;;;;;;;13.63;10.35;;;;;;;18.90;100.00;100777.31;6087288;23;20022;-76
2023/09/12 02:38:33;;;;;;;11.13;9.50;;;;;;;18.85;100.00;100760.91;6086244;23;20414;-74
2023/09/12 02:40:59;;;;;;;14.07;9.75;;;;;;;18.70;100.00;100746.22;6086842;23;20580;-75
2023/09/12 02:43:26;;;;;;;12.70;9.68;;;;;;;18.85;100.00;100760.06;6084293;23;20205;-74
2023/09/12 02:45:52;;;;;;;12.80;9.77;;;;;;;18.96;100.00;100781.25;6092080;23;20022;-73
2023/09/12 02:48:21;;;;;;;17.00;10.68;;;;;;;18.95;100.00;100770.75;6085755;23;20448;-74
2023/09/12 02:50:47;;;;;;;15.00;10.85;;;;;;;18.38;100.00;100694.03;6069873;23;20018;-72
2023/09/12 02:53:14;;;;;;;11.70;10.50;;;;;;;18.82;100.00;100752.34;6093764;23;20096;-75
2023/09/12 02:55:41;;;;;;;11.75;9.52;;;;;;;18.92;100.00;100777.16;6087207;23;20021;-74
2023/09/12 02:58:07;;;;;;;12.02;10.80;;;;;;;18.92;100.00;100767.38;6087604;23;20029;-75
2023/09/12 03:00:41;;;;;;;14.63;10.43;;;;;;;18.80;100.00;100747.16;6087914;23;20010;-76
2023/09/12 03:03:08;;;;;;;17.73;11.23;;;;;;;18.63;100.00;100710.53;6051767;23;20079;-74
2023/09/12 03:05:35;;;;;;;15.48;10.68;;;;;;;19.04;100.00;100772.59;6061058;23;20018;-73
2023/09/12 03:08:03;;;;;;;14.32;10.65;;;;;;;18.75;100.00;100728.06;6082434;23;20479;-75
2023/09/12 03:10:30;;;;;;;14.13;11.10;;;;;;;19.04;100.00;100772.59;6067213;23;20028;-74
2023/09/12 03:12:56;;;;;;;11.55;9.98;;;;;;;19.02;100.00;100780.72;6089071;23;20025;-74
2023/09/12 03:15:23;;;;;;;16.30;10.77;;;;;;;18.68;100.00;100727.78;6087901;23;20041;-73
2023/09/12 03:17:49;;;;;;;14.77;9.90;;;;;;;18.67;100.00;100735.88;6062519;23;20044;-74
2023/09/12 03:20:16;;;;;;;13.73;11.23;;;;;;;18.92;100.00;100782.47;6047618;23;20045;-76
2023/09/12 03:22:42;;;;;;;13.40;10.70;;;;;;;18.50;100.00;100705.41;6058094;23;20033;-75
2023/09/12 03:25:09;;;;;;;15.63;10.43;;;;;;;18.53;100.00;100716.63;6087142;23;20093;-75
2023/09/12 03:27:35;;;;;;;15.00;10.90;;;;;;;18.68;100.00;100745.50;6086998;23;20037;-73
2023/09/12 03:30:03;;;;;;;12.75;10.38;;;;;;;18.82;100.00;100769.16;6084987;23;20041;-74
2023/09/12 03:32:30;;;;;;;13.55;10.77;;;;;;;18.57;100.00;100738.47;6088378;23;20032;-74
2023/09/12 03:34:56;;;;;;;13.23;10.27;;;;;;;18.72;100.00;100742.47;6088372;23;20108;-76
2023/09/12 03:37:27;;;;;;;17.13;11.48;;;;;;;18.88;100.00;100757.13;6087189;23;20014;-75
2023/09/12 03:39:53;;;;;;;15.80;11.02;;;;;;;18.73;100.00;100733.53;6060329;23;20664;-75
2023/09/12 03:42:22;;;;;;;11.32;10.00;;;;;;;18.91;100.00;100757.72;6049862;23;20084;-74
2023/09/12 03:44:52;;;;;;;10.77;9.35;;;;;;;18.78;100.00;100733.13;6082608;23;20134;-75
2023/09/12 03:47:19;;;;;;;13.93;10.27;;;;;;;18.52;100.00;100680.41;6090438;23;20052;-75
2023/09/12 03:49:45;;;;;;;11.55;9.98;;;;;;;18.45;100.00;100668.59;6088294;23;20037;-76
2023/09/12 03:52:12;;;;;;;14.07;12.15;;;;;;;18.86;100.00;100732.47;6085646;23;20090;-74
2023/09/12 03:54:38;;;;;;;11.50;9.45;;;;;;;18.86;100.00;100722.72;6085426;23;20021;-75
2023/09/12 03:57:05;;;;;;;10.75;9.70;;;;;;;18.68;100.00;100690.56;6085028;23;20402;-73
2023/09/12 03:59:34;;;;;;;12.07;10.15;;;;;;;18.50;100.00;100650.47;6081979;23;20032;-73
2023/09/12 04:02:03;;;;;;;12.25;9.20;;;;;;;18.90;100.00;100718.81;6086704;23;20041;-73
2023/09/12 04:04:29;;;;;;;11.57;9.10;;;;;;;18.67;100.00;100669.41;6083664;23;20020;-76
2023/09/12 04:06:56;;;;;;;11.80;9.82;;;;;;;18.97;100.00;100710.28;6078882;23;20030;-75
2023/09/12 04:09:22;;;;;;;11.45;10.30;;;;;;;18.81;100.00;100682.38;6081273;23;20016;-74
2023/09/12 04:11:49;;;;;;;11.40;9.93;;;;;;;19.00;100.00;100713.50;6084006;23;20535;-76
2023/09/12 04:14:18;;;;;;;8.82;8.02;;;;;;;18.97;100.00;100708.47;6083916;23;20096;-74
2023/09/12 04:16:45;;;;;;;9.38;8.52;;;;;;;18.88;100.00;100686.19;6085223;23;20022;-74
2023/09/12 04:19:13;;;;;;;9.43;8.52;;;;;;;18.62;100.00;100645.91;6088315;23;20014;-75
2023/09/12 04:21:40;;;;;;;13.55;8.82;;;;;;;18.45;100.00;100620.78;6087021;23;20069;-76
2023/09/12 04:24:07;;;;;;;8.63;7.90;;;;;;;19.03;100.00;100718.56;6078254;23;20018;-74
2023/09/12 04:26:34;;;;;;;10.90;7.82;;;;;;;18.77;100.00;100680.09;6087743;23;20090;-74
2023/09/12 04:29:00;;;;;;;15.88;9.05;;;;;;;19.02;100.00;100716.88;6085182;23;20018;-74
2023/09/12 04:31:27;;;;;;;9.50;8.80;;;;;;;19.04;100.00;100720.28;6088506;23;20213;-74
2023/09/12 04:33:54;;;;;;;9.07;8.30;;;;;;;18.91;100.00;100709.00;6085797;23;20437;-75
2023/09/12 04:36:20;;;;;;;8.68;7.88;;;;;;;19.06;100.00;100733.41;6085026;23;20473;-74
2023/09/12 04:38:47;;;;;;;9.07;8.27;;;;;;;19.07;100.00;100719.97;6059408;23;20029;-77
2023/09/12 04:41:17;;;;;;;12.32;8.52;;;;;;;18.82;100.00;100652.16;6090087;23;20029;-74
2023/09/12 04:43:46;;;;;;;9.27;8.40;;;;;;;19.04;100.00;100667.06;6089103;23;20025;-72
2023/09/12 04:46:13;;;;;;;10.48;9.40;;;;;;;18.98;100.00;100667.59;6089284;23;20041;-73
2023/09/12 04:48:39;;;;;;;9.45;8.45;;;;;;;18.97;100.00;100691.69;6081440;23;20021;-75
2023/09/12 04:51:07;;;;;;;9.05;8.30;;;;;;;18.96;100.00;100696.13;6090741;23;20038;-77
2023/09/12 04:53:36;;;;;;;9.90;8.95;;;;;;;18.04;100.00;100557.94;6081532;23;20611;-75
2023/09/12 04:56:03;;;;;;;9.10;8.27;;;;;;;18.41;100.00;100615.88;6062850;23;20106;-74
2023/09/12 04:58:30;;;;;;;13.88;10.02;;;;;;;18.91;100.00;100715.16;6054741;23;20022;-74
2023/09/12 05:00:56;;;;;;;12.32;9.85;;;;;;;18.71;100.00;100703.56;6089298;23;20026;-75
2023/09/12 05:03:23;;;;;;;12.63;9.38;;;;;;;18.70;100.00;100732.94;6088323;23;20068;-73
2023/09/12 05:05:52;;;;;;;11.98;9.63;;;;;;;18.38;100.00;100693.16;6085974;23;20366;-74
2023/09/12 05:08:22;;;;;;;11.05;8.80;;;;;;;18.67;100.00;100754.47;6088316;23;20030;-76
2023/09/12 05:10:49;;;;;;;12.00;8.70;;;;;;;18.52;100.00;100751.28;6051956;23;20076;-75
2023/09/12 05:13:17;;;;;;;9.35;8.45;;;;;;;18.80;100.00;100802.16;6056967;23;20037;-74
2023/09/12 05:15:43;;;;;;;10.40;9.15;;;;;;;18.82;100.00;100817.03;6079433;23;20026;-77
2023/09/12 05:18:10;;;;;;;14.45;10.20;;;;;;;18.71;100.00;100807.25;6085263;23;20114;-76
2023/09/12 05:20:37;;;;;;;11.35;9.25;;;;;;;18.88;100.00;100831.59;6088781;23;20024;-77
2023/09/12 05:23:03;;;;;;;11.68;9.63;;;;;;;18.66;100.00;100803.28;6087786;23;20018;-76
2023/09/12 05:25:30;;;;;;;10.35;9.05;;;;;;;18.74;100.00;100811.44;6079290;23;20018;-74
2023/09/12 05:27:56;;;;;;;12.88;10.65;;;;;;;18.66;100.00;100780.22;6084337;23;20022;-77
2023/09/12 05:30:23;;;;;;;11.55;10.23;;;;;;;18.49;100.00;100757.72;6091523;23;20013;-75
2023/09/12 05:32:49;;;;;;;14.75;11.20;;;;;;;18.95;100.00;100832.75;6085530;23;22506;-77
2023/09/12 05:35:16;;;;;;;13.35;11.48;;;;;;;18.97;100.00;100833.47;6086286;23;20018;-75
2023/09/12 05:37:48;;;;;;;14.75;10.65;;;;;;;19.06;100.00;100840.69;6061789;23;20041;-76
2023/09/12 05:40:14;;;;;;;14.05;11.00;;;;;;;18.86;100.00;100817.56;6085718;23;20021;-77
2023/09/12 05:42:41;;;;;;;15.35;11.70;;;;;;;18.79;100.00;100821.72;6098013;23;20030;-75
2023/09/12 05:45:08;;;;;;;17.38;11.70;;;;;;;19.11;100.00;100885.50;6082753;23;20414;-76
2023/09/12 05:47:35;;;;;;;17.77;11.65;;;;;;;18.88;100.00;100840.44;6069874;23;20770;-75
2023/09/12 05:50:05;;;;;;;15.15;11.45;;;;;;;19.09;100.00;100852.88;6075175;23;20089;-74
2023/09/12 05:52:32;;;;;;;16.40;11.27;;;;;;;19.05;100.00;100816.88;6081376;23;20117;-74
2023/09/12 05:54:59;;;;;;;18.13;12.00;;;;;;;18.90;100.00;100774.66;6081090;23;20013;-75
2023/09/12 05:57:25;;;;;;;19.02;10.88;;;;;;;18.83;100.00;100741.59;6087931;23;20033;-75
2023/09/12 05:59:52;;;;;;;14.77;11.50;;;;;;;18.49;100.00;100667.38;6086164;23;20043;-75
2023/09/12 06:02:18;;;;;;;11.05;10.00;;;;;;;18.80;100.00;100727.69;6086844;23;20090;-75
2023/09/12 06:04:45;;;;;;;20.65;11.38;;;;;;;19.21;100.00;100782.63;6086867;23;20488;-77
2023/09/12 06:07:14;;;;;;;13.40;10.40;;;;;;;19.24;100.00;100754.91;6071789;23;20554;-74
2023/09/12 06:09:40;;;;;;;15.55;9.90;;;;;;;19.09;100.00;100722.50;6089805;23;20025;-75
2023/09/12 06:12:07;;;;;;;12.13;10.65;;;;;;;19.41;100.00;100764.91;6068297;23;20030;-76
2023/09/12 06:14:34;;;;;;;10.77;9.65;;;;;;;19.28;100.00;100700.44;6087500;23;20171;-74
2023/09/12 06:17:00;;;;;;;14.13;10.00;;;;;;;18.45;100.00;100564.13;6066840;23;22313;-74
2023/09/12 06:19:26;;;;;;;9.40;8.50;;;;;;;19.55;100.00;100723.75;6092248;23;20022;-73
2023/09/12 06:21:53;;;;;;;13.82;11.02;;;;;;;19.40;100.00;100691.34;6062570;23;20088;-73
2023/09/12 06:24:23;;;;;;;11.30;9.23;;;;;;;19.42;100.00;100708.03;6089223;23;20018;-74
2023/09/12 06:26:50;;;;;;;10.70;9.52;;;;;;;19.64;100.00;100738.06;6088100;23;20034;-74
2023/09/12 06:29:17;;;;;;;9.80;8.93;;;;;;;19.96;100.00;100776.94;6087176;23;20721;-74
2023/09/12 06:31:43;;;;;;;9.25;8.52;;;;;;;19.63;100.00;100709.75;6093179;23;20097;-74
2023/09/12 06:34:10;;;;;;;10.63;9.63;;;;;;;20.08;100.00;100781.16;6084149;23;20080;-75
2023/09/12 06:36:38;;;;;;;9.40;8.50;;;;;;;19.32;100.00;100643.31;6088387;23;20014;-73
2023/09/12 06:39:05;;;;;;;9.63;8.23;;;;;;;20.25;100.00;100763.63;6091652;23;20006;-74
2023/09/12 06:41:31;;;;;;;9.43;8.63;;;;;;;19.91;100.00;100682.31;6048367;23;20109;-75
2023/09/12 06:43:58;;;;;;;8.70;7.90;;;;;;;20.32;100.00;100738.91;6066691;23;20045;-74
2023/09/12 06:46:26;;;;;;;9.70;8.13;;;;;;;19.75;100.00;100633.28;6077680;23;20073;-75
2023/09/12 06:48:52;;;;;;;8.48;7.68;;;;;;;20.47;100.00;100735.84;6088417;23;20409;-77
2023/09/12 06:51:23;;;;;;;8.30;7.50;;;;;;;20.49;100.00;100734.69;6093156;23;20025;-74
2023/09/12 06:53:51;;;;;;;8.27;7.57;;;;;;;20.38;100.00;100720.69;6086161;23;20048;-78
2023/09/12 06:56:17;;;;;;;7.63;7.13;;;;;;;20.36;100.00;100698.66;6061602;23;20093;-75
2023/09/12 06:58:44;;;;;;;7.70;7.07;;;;;;;20.40;100.00;100730.22;6061121;23;20041;-76
2023/09/12 07:01:10;;;;;;;7.80;7.22;;;;;;;20.12;100.00;100711.44;6067421;23;20490;-75
2023/09/12 07:03:37;;;;;;;6.80;6.40;;;;;;;19.93;100.00;100706.16;6086229;23;20024;-76
2023/09/12 07:06:05;;;;;;;7.53;6.95;;;;;;;20.23;100.00;100746.94;6085769;23;20013;-75
2023/09/12 07:08:32;;;;;;;7.43;6.82;;;;;;;20.25;100.00;100751.16;6083200;23;20535;-75
2023/09/12 07:11:05;;;;;;;8.25;7.55;;;;;;;19.99;100.00;100673.63;6083652;23;20601;-77
2023/09/12 07:13:32;;;;;;;8.20;7.45;;;;;;;20.41;100.00;100715.91;6050729;23;20033;-75
2023/09/12 07:15:59;;;;;;;8.48;7.65;;;;;;;20.51;100.00;100686.56;6082377;23;20052;-74
2023/09/12 07:18:26;;;;;;;8.85;8.05;;;;;;;20.74;100.00;100712.91;6092877;23;20121;-75
2023/09/12 07:21:04;;;;;;;11.10;8.18;;;;;;;20.54;100.00;100699.59;6082184;23;20037;-75
2023/09/12 07:23:30;;;;;;;9.02;8.23;;;;;;;20.46;100.00;100663.00;6075588;23;20736;-75
2023/09/12 07:25:57;;;;;;;10.07;7.95;;;;;;;20.78;100.00;100699.13;6081766;23;20668;-75
2023/09/12 07:28:25;;;;;;;8.98;8.07;;;;;;;20.80;100.00;100688.31;6085913;23;20014;-75
2023/09/12 07:30:52;;;;;;;8.88;7.53;;;;;;;20.64;100.00;100630.28;6083305;23;20092;-76
2023/09/12 07:33:18;;;;;;;8.10;7.45;;;;;;;20.92;100.00;100617.78;6087878;23;20116;-76
2023/09/12 07:35:48;;;;;;;7.78;7.15;;;;;;;20.95;100.00;100580.13;6087590;23;20069;-76
2023/09/12 07:38:15;;;;;;;7.82;7.22;;;;;;;21.37;100.00;100619.59;6088417;23;20029;-74
2023/09/12 07:40:42;;;;;;;13.80;9.63;;;;;;;21.13;100.00;100540.13;6089197;23;20022;-75
2023/09/12 07:43:09;;;;;;;8.38;7.63;;;;;;;21.82;100.00;100594.63;6087077;23;20029;-75
2023/09/12 07:45:38;;;;;;;7.32;6.78;;;;;;;21.85;100.00;100548.91;6060277;23;20507;-76
2023/09/12 07:48:11;;;;;;;7.60;7.10;;;;;;;21.65;100.00;100505.53;6086595;23;20026;-75
2023/09/12 07:50:38;;;;;;;8.75;7.30;;;;;;;21.78;100.00;100565.72;6082359;23;20043;-75
2023/09/12 07:53:05;;;;;;;8.45;7.60;;;;;;;21.66;100.00;100552.59;6089886;23;20038;-75
2023/09/12 07:55:44;;;;;;;8.98;8.27;;;;;;;22.02;100.00;100559.69;6083183;23;20206;-75
2023/09/12 07:58:15;;;;;;;8.85;8.05;;;;;;;21.82;100.00;100466.38;6089444;23;20022;-76
2023/09/12 08:00:42;;;;;;;9.77;8.68;;;;;;;22.48;100.00;100461.34;6089298;23;20489;-77
2023/09/12 08:03:09;;;;;;;7.75;7.25;;;;;;;22.61;95.63;100393.97;6087085;23;20018;-74
2023/09/12 08:05:35;;;;;;;7.35;6.85;;;;;;;22.50;95.06;100400.50;6083856;23;20020;-73
2023/09/12 08:08:02;;;;;;;7.25;6.80;;;;;;;22.82;94.79;100428.28;6041382;23;20548;-73
2023/09/12 08:10:29;;;;;;;8.40;7.60;;;;;;;22.36;97.59;100439.41;6083505;23;20018;-75
2023/09/12 08:12:55;;;;;;;8.52;7.72;;;;;;;21.97;99.52;100405.19;6059820;23;20030;-75
2023/09/12 08:15:22;;;;;;;6.45;5.95;;;;;;;21.62;96.79;100350.94;6092232;23;20092;-75
2023/09/12 08:17:51;;;;;;;6.85;6.45;;;;;;;21.84;100.00;100482.25;6076447;23;20021;-74
2023/09/12 08:20:19;;;;;;;7.40;6.90;;;;;;;21.50;100.00;100437.66;6089666;23;20613;-75
2023/09/12 08:22:46;;;;;;;7.78;7.05;;;;;;;;;;6092278;23;20014;-76
2023/09/12 08:25:14;;;;;;;6.90;6.40;;;;;;;22.14;100.00;100461.38;6085457;23;20037;-77
2023/09/12 08:27:42;;;;;;;6.88;6.47;;;;;;;22.03;100.00;100465.13;6083540;23;20014;-75
2023/09/12 08:30:09;;;;;;;6.68;6.28;;;;;;;22.28;100.00;100460.78;6090537;23;20028;-75
2023/09/12 08:32:36;;;;;;;6.80;6.32;;;;;;;22.73;97.64;100464.88;6091118;23;20044;-75
2023/09/12 08:35:03;;;;;;;6.63;6.22;;;;;;;22.63;95.82;100411.56;6089593;23;20525;-76
2023/09/12 08:37:30;;;;;;;6.60;6.20;;;;;;;22.96;94.34;100454.38;6092340;23;20053;-75
2023/09/12 08:39:58;;;;;;;7.20;6.72;;;;;;;23.18;94.95;100486.88;6090029;23;20016;-75
2023/09/12 08:42:29;;;;;;;7.35;6.82;;;;;;;23.44;93.48;100490.19;6088915;23;20087;-74
2023/09/12 08:44:56;;;;;;;7.32;6.80;;;;;;;23.43;90.54;100451.03;6082478;23;20102;-76
2023/09/12 08:47:23;;;;;;;7.10;6.60;;;;;;;23.66;91.04;100477.09;6087640;23;20022;-75
2023/09/12 08:49:50;;;;;;;7.43;6.90;;;;;;;23.46;90.51;100425.75;6089082;23;20288;-76
2023/09/12 08:52:17;;;;;;;8.55;6.97;;;;;;;23.53;89.98;100418.69;6060806;23;20045;-75
2023/09/12 08:54:43;;;;;;;6.78;6.38;;;;;;;23.87;90.88;100482.78;6060368;23;20089;-75
2023/09/12 08:57:12;;;;;;;7.03;6.50;;;;;;;24.07;86.72;100447.50;6088294;23;20028;-74
2023/09/12 08:59:40;;;;;;;6.55;5.95;;;;;;;23.86;85.85;100405.22;6057641;23;20017;-74
2023/09/12 09:02:08;;;;;;;6.75;6.30;;;;;;;24.26;83.36;100428.31;6079400;23;20112;-74
2023/09/12 09:04:36;;;;;;;6.32;5.90;;;;;;;24.38;81.72;100411.84;6089232;23;20040;-76
2023/09/12 09:07:04;;;;;;;6.72;6.03;;;;;;;24.00;78.31;100315.22;6086037;23;20096;-74
2023/09/12 09:09:31;;;;;;;6.47;6.07;;;;;;;24.53;79.21;100415.44;6084012;23;20077;-74
2023/09/12 09:11:57;;;;;;;6.70;6.30;;;;;;;24.13;76.81;100312.75;6080952;23;20029;-73
2023/09/12 09:14:24;;;;;;;6.38;5.97;;;;;;;24.09;77.82;100387.38;6091000;23;20436;-74
2023/09/12 09:16:50;;;;;;;6.15;5.85;;;;;;;23.61;76.52;100243.69;6065037;23;20033;-74
2023/09/12 09:19:19;;;;;;;6.03;5.72;;;;;;;24.61;75.36;100382.34;6091508;23;20021;-75
2023/09/12 09:21:46;;;;;;;6.00;5.70;;;;;;;24.23;73.07;100283.84;6095471;23;20036;-74
2023/09/12 09:24:17;;;;;;;5.95;5.55;;;;;;;24.87;72.99;100365.88;6097030;23;20078;-74
2023/09/12 09:26:44;;;;;;;5.90;5.60;;;;;;;24.56;70.41;100254.13;6069543;23;20042;-74
2023/09/12 09:29:16;;;;;;;6.20;5.90;;;;;;;24.23;71.99;100304.47;6095150;23;20570;-74
2023/09/12 09:31:44;;;;;;;6.03;5.63;;;;;;;24.71;72.38;100376.75;6089416;23;20475;-74
2023/09/12 09:34:13;;;;;;;5.82;5.53;;;;;;;24.99;71.37;100372.44;6067487;23;20034;-74
2023/09/12 09:36:50;;;;;;;6.00;5.70;;;;;;;24.93;68.57;100289.97;6085953;23;20006;-74
2023/09/12 09:39:18;;;;;;;5.97;5.68;;;;;;;25.11;69.46;100347.84;6088881;23;20086;-74
2023/09/12 09:41:49;;;;;;;5.80;5.50;;;;;;;24.60;70.76;100345.81;6093844;23;20025;-74
2023/09/12 09:44:16;;;;;;;6.00;5.68;;;;;;;23.99;69.22;100228.56;6061399;23;20018;-75
2023/09/12 09:46:43;;;;;;;6.10;5.80;;;;;;;24.10;72.00;100339.94;6090448;23;20021;-74
2023/09/12 09:49:11;;;;;;;5.88;5.57;;;;;;;24.92;71.74;100435.97;6061436;23;20072;-74
2023/09/12 09:51:44;;;;;;;5.85;5.55;;;;;;;24.66;70.52;100351.28;6087326;23;20025;-74
2023/09/12 09:54:15;;;;;;;5.60;5.30;;;;;;;24.33;72.24;100368.59;6090655;23;20037;-74
2023/09/12 09:56:46;;;;;;;5.88;5.57;;;;;;;23.91;71.35;100322.44;6089080;23;20033;-75
2023/09/12 09:59:17;;;;;;;5.70;5.40;;;;;;;24.71;71.30;100423.19;6085871;23;20491;-75
2023/09/12 10:01:45;;;;;;;5.93;5.55;;;;;;;24.62;70.83;100376.81;6093464;23;20022;-74
2023/09/12 10:04:12;;;;;;;6.18;5.78;;;;;;;24.80;71.14;100395.28;6094988;23;20418;-75
2023/09/12 10:06:42;;;;;;;6.20;5.80;;;;;;;25.15;70.44;100402.88;6091752;23;20022;-74
2023/09/12 10:09:11;;;;;;;6.90;6.40;;;;;;;25.45;70.36;100428.75;6083296;23;20038;-74
2023/09/12 10:11:42;;;;;;;6.65;6.25;;;;;;;25.16;69.49;100340.06;6082833;23;20095;-75
2023/09/12 10:14:11;;;;;;;6.53;6.13;;;;;;;25.00;70.38;100368.78;6092329;23;20028;-74
2023/09/12 10:16:47;;;;;;;6.28;5.97;;;;;;;24.81;69.69;100323.66;6089611;23;20025;-75
2023/09/12 10:19:19;;;;;;;6.70;6.20;;;;;;;24.74;70.45;100336.13;6094002;23;20087;-75
2023/09/12 10:22:11;;;;;;;7.20;6.63;;;;;;;24.88;67.73;100295.91;6093149;23;20053;-74
2023/09/12 10:24:39;;;;;;;6.60;6.10;;;;;;;25.00;69.29;100382.19;6096628;23;20657;-76
2023/09/12 10:27:06;;;;;;;6.70;6.30;;;;;;;25.01;69.05;100353.47;6080004;23;20029;-74
2023/09/12 10:29:33;;;;;;;6.93;6.40;;;;;;;25.11;69.52;100386.28;6088798;23;20077;-74
2023/09/12 10:32:00;;;;;;;7.75;7.15;;;;;;;24.49;71.67;100381.91;6091775;23;20097;-75
2023/09/12 10:34:29;;;;;;;6.88;6.38;;;;;;;24.41;68.96;100293.44;6087335;23;20022;-74
2023/09/12 10:36:59;;;;;;;7.18;6.68;;;;;;;24.51;67.38;100244.94;6062305;23;20033;-74
2023/09/12 10:39:30;;;;;;;7.10;6.50;;;;;;;24.79;67.22;100317.63;6084421;23;20037;-74
2023/09/12 10:41:59;;;;;;;6.85;6.35;;;;;;;24.34;67.75;100260.34;6094087;23;20085;-75
2023/09/12 10:44:26;;;;;;;6.75;6.35;;;;;;;24.97;67.11;100319.97;6094864;23;20022;-75
2023/09/12 10:46:54;;;;;;;7.80;7.20;;;;;;;24.75;69.00;100356.59;6093221;23;20022;-74
2023/09/12 10:49:21;;;;;;;7.25;6.70;;;;;;;24.78;67.90;100322.16;6083851;23;20046;-74
2023/09/12 10:51:48;;;;;;;7.70;7.10;;;;;;;24.61;68.55;100328.69;6092847;23;20017;-75
2023/09/12 10:54:38;;;;;;;7.25;6.75;;;;;;;25.48;67.18;100361.25;6091940;23;20072;-74
2023/09/12 10:57:06;;;;;;;7.38;6.82;;;;;;;25.68;65.51;100329.25;6096737;23;20041;-75
2023/09/12 10:59:36;;;;;;;7.55;6.95;;;;;;;25.99;64.43;100322.81;6087033;23;20026;-75
2023/09/12 11:02:35;;;;;;;8.00;7.30;;;;;;;26.52;61.58;100268.69;6092565;23;20025;-75
2023/09/12 11:05:27;;;;;;;7.45;6.82;;;;;;;26.61;61.34;100259.44;6091236;23;20126;-76
2023/09/12 11:08:02;;;;;;;8.27;7.47;;;;;;;26.35;61.50;100243.06;6082971;23;20027;-75
2023/09/12 11:10:32;;;;;;;8.10;7.43;;;;;;;26.41;62.98;100317.63;6087492;23;20053;-76
2023/09/12 11:12:59;;;;;;;8.52;7.80;;;;;;;26.10;63.92;100315.25;6088826;23;20448;-75
2023/09/12 11:15:31;;;;;;;7.65;7.05;;;;;;;25.71;65.85;100354.91;6085711;23;20041;-74
2023/09/12 11:18:04;;;;;;;7.53;7.00;;;;;;;26.63;62.79;100372.31;6082581;23;20096;-75